Time;durP1;ratioP1;P1;durP2;ratioP2;P2;SDS_P1;SDS_P2;PMS_P1;PMS_P2;Temp;Humidity;BMP_temperature;BMP_pressure;BME280_temperature;BME280_humidity;BME280_pressure;Samples;Min_cycle;Max_cycle;Signal;HPM_P1;HPM_P2
2023/08/01 00:01:48;;;;;;;2.47;1.73;;;22.20;99.90;;;;;;5023278;28;20471;-52
2023/08/01 00:04:16;;;;;;;2.70;2.20;;;22.20;99.90;;;;;;5021132;28;20457;-50
2023/08/01 00:06:44;;;;;;;3.10;1.60;;;22.20;99.90;;;;;;5023974;28;20953;-55
2023/08/01 00:09:10;;;;;;;2.63;1.60;;;22.30;99.90;;;;;;5024072;28;20484;-53
2023/08/01 00:11:37;;;;;;;3.10;1.80;;;22.20;99.90;;;;;;5022397;28;20472;-50
2023/08/01 00:14:04;;;;;;;2.03;1.57;;;22.20;99.90;;;;;;5019306;28;20458;-52
2023/08/01 00:16:32;;;;;;;2.33;1.60;;;22.30;99.90;;;;;;5020254;28;21500;-51
2023/08/01 00:18:59;;;;;;;2.90;1.60;;;22.20;99.90;;;;;;5023245;28;20481;-54
2023/08/01 00:21:25;;;;;;;4.07;1.83;;;22.20;99.90;;;;;;5020733;28;20468;-51
2023/08/01 00:23:53;;;;;;;2.73;2.07;;;22.20;99.90;;;;;;5023563;28;20454;-54
2023/08/01 00:26:20;;;;;;;2.37;1.50;;;22.20;99.90;;;;;;5022212;28;20473;-51
2023/08/01 00:28:47;;;;;;;2.87;1.70;;;22.20;99.90;;;;;;5023151;28;20838;-53
2023/08/01 00:31:13;;;;;;;2.17;1.40;;;22.20;99.90;;;;;;5022043;28;20462;-51
2023/08/01 00:33:41;;;;;;;2.90;1.60;;;22.20;99.90;;;;;;5025782;28;20516;-50
2023/08/01 00:36:09;;;;;;;2.13;1.57;;;22.20;99.90;;;;;;5021953;28;20454;-51
2023/08/01 00:38:36;;;;;;;1.60;1.50;;;22.20;99.90;;;;;;5024326;28;20579;-52
2023/08/01 00:41:04;;;;;;;3.60;1.70;;;22.20;99.90;;;;;;5024211;28;20457;-54
2023/08/01 00:43:31;;;;;;;2.40;1.63;;;22.20;99.90;;;;;;5024962;28;21196;-54
2023/08/01 00:46:00;;;;;;;2.83;1.80;;;22.20;99.90;;;;;;5020689;28;20465;-51
2023/08/01 00:48:28;;;;;;;2.20;2.00;;;22.20;99.90;;;;;;5024024;28;20643;-51
2023/08/01 00:50:56;;;;;;;1.93;1.43;;;22.20;99.90;;;;;;5025354;28;20462;-53
2023/08/01 00:53:23;;;;;;;3.67;1.83;;;22.20;99.90;;;;;;5025652;28;21028;-54
2023/08/01 00:55:52;;;;;;;2.03;1.47;;;22.20;99.90;;;;;;5025443;28;20466;-54
2023/08/01 00:58:20;;;;;;;3.00;1.90;;;22.20;99.90;;;;;;5027291;28;20966;-55
2023/08/01 01:00:47;;;;;;;2.17;1.77;;;22.20;99.90;;;;;;5027590;28;20461;-51
2023/08/01 01:03:15;;;;;;;1.73;1.60;;;22.20;99.90;;;;;;5026793;28;20557;-54
2023/08/01 01:05:47;;;;;;;2.07;1.60;;;22.20;99.90;;;;;;5025944;28;20484;-52
2023/08/01 01:08:14;;;;;;;3.83;1.50;;;22.20;99.90;;;;;;5023835;28;20461;-51
2023/08/01 01:10:41;;;;;;;2.30;1.50;;;22.20;99.90;;;;;;5022332;28;20500;-53
2023/08/01 01:13:08;;;;;;;3.63;1.60;;;22.20;99.90;;;;;;5021783;28;20461;-53
2023/08/01 01:15:36;;;;;;;1.83;1.60;;;22.20;99.90;;;;;;5024124;28;20466;-49
2023/08/01 01:18:03;;;;;;;3.83;1.73;;;22.20;99.90;;;;;;5023548;28;20469;-51
2023/08/01 01:20:34;;;;;;;1.63;1.27;;;22.20;99.90;;;;;;5028288;28;20477;-54
2023/08/01 01:23:03;;;;;;;1.90;1.80;;;22.20;99.90;;;;;;5030083;28;20825;-50
2023/08/01 01:25:31;;;;;;;2.00;1.67;;;22.20;99.90;;;;;;5029822;28;20462;-52
2023/08/01 01:27:59;;;;;;;1.73;1.50;;;22.20;99.90;;;;;;5030146;28;20897;-49
2023/08/01 01:30:28;;;;;;;1.97;1.77;;;22.20;99.90;;;;;;5028393;28;20447;-52
2023/08/01 01:32:55;;;;;;;2.23;1.40;;;22.10;99.90;;;;;;5029226;28;20473;-54
2023/08/01 01:35:22;;;;;;;2.50;1.70;;;22.10;99.90;;;;;;5027594;28;20458;-52
2023/08/01 01:37:50;;;;;;;1.73;1.63;;;22.20;99.90;;;;;;5029308;28;20840;-50
2023/08/01 01:40:16;;;;;;;1.97;1.53;;;22.10;99.90;;;;;;5025214;28;20497;-53
2023/08/01 01:42:43;;;;;;;1.77;1.40;;;22.20;99.90;;;;;;5031043;28;20474;-51
2023/08/01 01:45:10;;;;;;;2.60;1.70;;;22.10;99.90;;;;;;5030291;28;20466;-50
2023/08/01 01:47:37;;;;;;;2.33;1.57;;;22.10;99.90;;;;;;5027080;28;20468;-50
2023/08/01 01:50:05;;;;;;;1.83;1.20;;;22.20;99.90;;;;;;5027559;28;20505;-52
2023/08/01 01:52:32;;;;;;;2.27;1.77;;;22.10;99.90;;;;;;5026299;28;20470;-51
2023/08/01 01:55:00;;;;;;;1.83;1.70;;;22.10;99.90;;;;;;5028554;28;20898;-49
2023/08/01 01:57:27;;;;;;;2.20;1.40;;;22.10;99.90;;;;;;5030478;28;20979;-50
2023/08/01 01:59:54;;;;;;;2.40;1.40;;;22.10;99.90;;;;;;5030383;28;20482;-52
2023/08/01 02:02:20;;;;;;;3.20;1.87;;;22.10;99.90;;;;;;5029433;28;20468;-54
2023/08/01 02:04:49;;;;;;;2.77;1.60;;;22.10;99.90;;;;;;5031769;28;20481;-50
2023/08/01 02:07:15;;;;;;;2.37;1.33;;;22.10;99.90;;;;;;5031126;28;20463;-50
2023/08/01 02:09:42;;;;;;;1.40;1.20;;;22.10;99.90;;;;;;5028532;28;20969;-51
2023/08/01 02:12:13;;;;;;;2.07;1.50;;;22.10;99.90;;;;;;5024096;28;20461;-53
2023/08/01 02:14:40;;;;;;;2.13;1.30;;;22.10;99.90;;;;;;5025131;28;20470;-51
2023/08/01 02:17:07;;;;;;;1.50;1.20;;;22.10;99.90;;;;;;5025855;28;20481;-52
2023/08/01 02:19:34;;;;;;;2.37;1.47;;;22.10;99.90;;;;;;5031171;28;20576;-52
2023/08/01 02:22:01;;;;;;;1.57;1.13;;;22.10;99.90;;;;;;5029748;28;20466;-54
2023/08/01 02:24:27;;;;;;;2.63;1.60;;;22.10;99.90;;;;;;5036037;28;20540;-51
2023/08/01 02:26:54;;;;;;;1.60;1.50;;;22.10;99.90;;;;;;5028785;28;20549;-57
2023/08/01 02:29:23;;;;;;;2.77;1.40;;;22.10;99.90;;;;;;5021650;28;20854;-54
2023/08/01 02:31:50;;;;;;;1.80;1.20;;;22.10;99.90;;;;;;5028023;28;20817;-51
2023/08/01 02:34:17;;;;;;;3.20;1.47;;;22.10;99.90;;;;;;5025339;28;20461;-52
2023/08/01 02:36:44;;;;;;;1.77;1.47;;;22.10;99.90;;;;;;5030002;28;20481;-53
2023/08/01 02:39:10;;;;;;;2.57;1.30;;;22.10;99.90;;;;;;5030477;28;20556;-52
2023/08/01 02:41:37;;;;;;;1.30;1.20;;;22.10;99.90;;;;;;5029175;28;20469;-54
2023/08/01 02:44:04;;;;;;;2.07;1.30;;;22.10;99.90;;;;;;5031170;28;20694;-50
2023/08/01 02:46:32;;;;;;;1.20;1.10;;;22.10;99.90;;;;;;5027833;28;20473;-51
2023/08/01 02:48:59;;;;;;;1.10;0.90;;;22.10;99.90;;;;;;5026461;28;20462;-55
2023/08/01 02:51:25;;;;;;;1.53;1.43;;;22.10;99.90;;;;;;5028733;28;20469;-52
2023/08/01 02:53:52;;;;;;;1.40;1.17;;;22.10;99.90;;;;;;5028863;28;20478;-50
2023/08/01 02:56:19;;;;;;;1.80;1.50;;;22.10;99.90;;;;;;5028775;28;20473;-51
2023/08/01 02:58:45;;;;;;;1.60;1.20;;;22.10;99.90;;;;;;5030371;28;20456;-51
2023/08/01 03:01:13;;;;;;;2.37;1.43;;;22.10;99.90;;;;;;5028785;28;20790;-52
2023/08/01 03:03:41;;;;;;;1.77;1.30;;;22.10;99.90;;;;;;5029391;28;20465;-55
2023/08/01 03:06:08;;;;;;;1.37;1.20;;;22.10;99.90;;;;;;5028370;28;20467;-53
2023/08/01 03:08:35;;;;;;;2.30;1.30;;;22.00;99.90;;;;;;5029421;28;20541;-52
2023/08/01 03:11:02;;;;;;;1.33;1.13;;;22.10;99.90;;;;;;5029050;28;20468;-51
2023/08/01 03:13:29;;;;;;;1.70;1.20;;;22.10;99.90;;;;;;5031427;28;20996;-54
2023/08/01 03:15:55;;;;;;;2.50;1.63;;;22.00;99.90;;;;;;5025718;28;20488;-52
2023/08/01 03:18:22;;;;;;;1.07;0.97;;;22.10;99.90;;;;;;5025425;28;20522;-55
2023/08/01 03:20:51;;;;;;;1.57;1.23;;;22.00;99.90;;;;;;5027283;28;20508;-53
2023/08/01 03:23:18;;;;;;;1.70;1.40;;;22.00;99.90;;;;;;5026173;28;20896;-52
2023/08/01 03:25:45;;;;;;;1.80;1.27;;;22.00;99.90;;;;;;5028260;28;21064;-54
2023/08/01 03:28:11;;;;;;;2.80;1.20;;;22.00;99.90;;;;;;5023387;28;20469;-54
2023/08/01 03:30:38;;;;;;;1.37;1.10;;;22.00;99.90;;;;;;5024470;28;20461;-53
2023/08/01 03:33:05;;;;;;;1.80;1.50;;;22.10;99.90;;;;;;5026731;28;20445;-51
2023/08/01 03:35:31;;;;;;;1.37;1.27;;;22.00;99.90;;;;;;5025262;28;20462;-50
2023/08/01 03:37:59;;;;;;;2.10;1.60;;;22.10;99.90;;;;;;5024907;28;21005;-50
2023/08/01 03:40:26;;;;;;;2.10;1.37;;;22.00;99.90;;;;;;5027265;28;20513;-53
2023/08/01 03:42:53;;;;;;;1.57;1.30;;;22.00;99.90;;;;;;5028177;28;20772;-52
2023/08/01 03:45:20;;;;;;;2.43;1.40;;;22.00;99.90;;;;;;5021355;28;20462;-52
2023/08/01 03:47:46;;;;;;;1.70;1.10;;;22.00;99.90;;;;;;5026558;28;20462;-54
2023/08/01 03:50:13;;;;;;;1.33;1.23;;;22.00;99.90;;;;;;5026174;28;20882;-55
2023/08/01 03:52:40;;;;;;;1.40;1.03;;;22.00;99.90;;;;;;5024051;28;20866;-54
2023/08/01 03:55:09;;;;;;;1.37;1.17;;;22.00;99.90;;;;;;5027962;28;20469;-53
2023/08/01 03:57:36;;;;;;;1.30;1.17;;;22.00;99.90;;;;;;5025956;28;20993;-54
2023/08/01 04:00:03;;;;;;;1.50;1.23;;;22.00;99.90;;;;;;5024765;28;21072;-52
2023/08/01 04:02:30;;;;;;;1.27;1.00;;;22.00;99.90;;;;;;5021176;28;20530;-53
2023/08/01 04:04:57;;;;;;;1.30;1.10;;;22.00;99.90;;;;;;5022824;28;20458;-55
2023/08/01 04:07:23;;;;;;;1.63;1.53;;;22.00;99.90;;;;;;5022012;28;20249;-51
2023/08/01 04:09:50;;;;;;;1.57;1.10;;;22.00;99.90;;;;;;5027717;28;20465;-52
2023/08/01 04:12:18;;;;;;;1.88;1.20;;;22.00;99.90;;;;;;5025251;28;20515;-54
2023/08/01 04:14:45;;;;;;;1.47;1.33;;;22.00;99.90;;;;;;5025655;28;20784;-54
2023/08/01 04:17:12;;;;;;;3.20;1.40;;;22.00;99.90;;;;;;5019226;28;20477;-53
2023/08/01 04:19:38;;;;;;;1.50;1.20;;;22.00;99.90;;;;;;5025097;28;21045;-51
2023/08/01 04:22:05;;;;;;;2.80;1.20;;;22.00;99.90;;;;;;5022319;28;20462;-52
2023/08/01 04:24:32;;;;;;;2.40;1.17;;;22.00;99.90;;;;;;5023570;28;20462;-51
2023/08/01 04:26:59;;;;;;;1.60;1.03;;;22.00;99.90;;;;;;5021955;28;21078;-50
2023/08/01 04:29:27;;;;;;;1.80;1.07;;;22.00;99.90;;;;;;5024280;28;20493;-51
2023/08/01 04:31:53;;;;;;;1.23;1.13;;;22.00;99.90;;;;;;5022237;28;20877;-54
2023/08/01 04:34:21;;;;;;;2.30;1.50;;;22.00;99.90;;;;;;5025634;28;20534;-51
2023/08/01 04:36:47;;;;;;;1.37;1.27;;;22.00;99.90;;;;;;5019733;28;20473;-55
2023/08/01 04:39:14;;;;;;;1.90;1.37;;;22.00;99.90;;;;;;5023709;28;20466;-51
2023/08/01 04:41:41;;;;;;;1.77;1.67;;;22.00;99.90;;;;;;5027396;28;20482;-49
2023/08/01 04:44:07;;;;;;;1.40;1.20;;;22.00;99.90;;;;;;5025046;28;20466;-49
2023/08/01 04:46:35;;;;;;;1.77;1.30;;;22.00;99.90;;;;;;5020099;28;20732;-50
2023/08/01 04:49:02;;;;;;;2.07;1.37;;;22.00;99.90;;;;;;5024589;28;20501;-50
2023/08/01 04:51:29;;;;;;;2.10;1.50;;;22.00;99.90;;;;;;5025201;28;20798;-53
2023/08/01 04:53:56;;;;;;;2.00;1.40;;;22.00;99.90;;;;;;5025872;28;20812;-53
2023/08/01 04:56:22;;;;;;;1.40;1.30;;;22.00;99.90;;;;;;5025674;28;20454;-50
2023/08/01 04:58:49;;;;;;;2.63;2.27;;;22.00;99.90;;;;;;5025368;28;20458;-54
2023/08/01 05:01:16;;;;;;;5.27;2.27;;;22.00;99.90;;;;;;5023779;28;20965;-54
2023/08/01 05:03:44;;;;;;;3.37;2.27;;;22.00;99.90;;;;;;5026776;28;20992;-50
2023/08/01 05:06:10;;;;;;;2.63;1.97;;;22.00;99.90;;;;;;5025190;28;20470;-50
2023/08/01 05:08:37;;;;;;;2.73;2.10;;;22.00;99.90;;;;;;5023747;28;20735;-51
2023/08/01 05:11:04;;;;;;;3.77;2.40;;;22.00;99.90;;;;;;5027738;28;20841;-51
2023/08/01 05:13:30;;;;;;;3.60;2.20;;;21.90;99.90;;;;;;5028455;28;20472;-50
2023/08/01 05:15:57;;;;;;;3.50;2.80;;;21.90;99.90;;;;;;5026037;28;21000;-53
2023/08/01 05:18:24;;;;;;;2.70;1.83;;;22.00;99.90;;;;;;5026063;28;20466;-53
2023/08/01 05:20:52;;;;;;;2.47;1.83;;;21.90;99.90;;;;;;5023990;28;20486;-52
2023/08/01 05:23:18;;;;;;;2.43;1.80;;;21.90;99.90;;;;;;5025215;28;20469;-49
2023/08/01 05:25:45;;;;;;;2.47;2.27;;;21.90;99.90;;;;;;5026552;28;20588;-51
2023/08/01 05:28:12;;;;;;;2.63;2.10;;;21.90;99.90;;;;;;5025371;28;20482;-52
2023/08/01 05:30:39;;;;;;;4.20;2.53;;;21.90;99.90;;;;;;5025545;28;20897;-50
2023/08/01 05:33:06;;;;;;;2.50;2.20;;;21.90;99.90;;;;;;5024266;28;20763;-53
2023/08/01 05:35:32;;;;;;;3.00;2.33;;;21.90;99.90;;;;;;5024930;28;20462;-50
2023/08/01 05:38:01;;;;;;;3.23;2.40;;;21.90;99.90;;;;;;5025775;28;20476;-48
2023/08/01 05:40:28;;;;;;;3.37;2.73;;;21.90;99.90;;;;;;5026089;28;20583;-53
2023/08/01 05:42:54;;;;;;;4.00;2.30;;;21.90;99.90;;;;;;5025727;28;20465;-50
2023/08/01 05:45:21;;;;;;;2.50;2.30;;;21.90;99.90;;;;;;5023896;28;20834;-49
2023/08/01 05:47:48;;;;;;;3.33;2.43;;;21.90;99.90;;;;;;5019973;28;20465;-51
2023/08/01 05:50:14;;;;;;;2.83;2.53;;;21.90;99.90;;;;;;5019080;28;21096;-49
2023/08/01 05:52:41;;;;;;;3.57;2.57;;;21.90;99.90;;;;;;5023297;28;20467;-49
2023/08/01 05:55:10;;;;;;;3.47;3.10;;;21.90;99.90;;;;;;5028006;28;20445;-50
2023/08/01 05:57:36;;;;;;;8.90;3.00;;;21.90;99.90;;;;;;5029920;28;20442;-51
2023/08/01 06:00:03;;;;;;;4.17;3.00;;;21.90;99.90;;;;;;5023496;28;21502;-54
2023/08/01 06:02:30;;;;;;;3.83;2.57;;;21.90;99.90;;;;;;5025319;28;20461;-50
2023/08/01 06:04:56;;;;;;;2.80;2.20;;;21.90;99.90;;;;;;5024334;28;20465;-53
2023/08/01 06:07:23;;;;;;;3.97;2.60;;;21.90;99.90;;;;;;5024096;28;20466;-50
2023/08/01 06:09:51;;;;;;;3.30;2.70;;;21.90;99.90;;;;;;5024512;28;23350;-51
2023/08/01 06:12:19;;;;;;;3.47;3.17;;;21.90;99.90;;;;;;5023994;28;20897;-54
2023/08/01 06:14:46;;;;;;;2.70;2.50;;;21.90;99.90;;;;;;5023243;28;20459;-51
2023/08/01 06:17:13;;;;;;;3.67;3.30;;;21.90;99.90;;;;;;5024348;28;20450;-56
2023/08/01 06:19:40;;;;;;;5.20;2.87;;;21.90;99.90;;;;;;5024605;28;21248;-48
2023/08/01 06:22:06;;;;;;;3.40;3.10;;;21.90;99.90;;;;;;5024574;28;20477;-51
2023/08/01 06:24:33;;;;;;;4.07;2.87;;;21.90;99.90;;;;;;5025273;28;20941;-51
2023/08/01 06:27:00;;;;;;;6.30;3.23;;;21.90;99.90;;;;;;5023726;28;20465;-54
2023/08/01 06:29:28;;;;;;;3.80;3.27;;;21.90;99.90;;;;;;5025546;28;21014;-53
2023/08/01 06:31:55;;;;;;;6.00;4.47;;;21.90;99.90;;;;;;5024291;28;20462;-53
2023/08/01 06:34:21;;;;;;;5.53;5.03;;;21.90;99.90;;;;;;5025023;28;20466;-55
2023/08/01 06:36:48;;;;;;;13.15;6.15;;;21.80;99.90;;;;;;5027768;28;20466;-49
2023/08/01 06:39:15;;;;;;;6.37;5.27;;;21.80;99.90;;;;;;5025021;28;20203;-52
2023/08/01 06:41:41;;;;;;;11.23;5.83;;;21.80;99.90;;;;;;5022066;28;20513;-54
2023/08/01 06:44:08;;;;;;;5.30;4.67;;;21.80;99.90;;;;;;5026693;28;20459;-54
2023/08/01 06:46:36;;;;;;;7.47;4.75;;;21.80;99.90;;;;;;5022216;28;20457;-50
2023/08/01 06:49:03;;;;;;;6.53;4.50;;;21.80;99.90;;;;;;5021377;28;20211;-50
2023/08/01 06:51:30;;;;;;;6.83;4.20;;;21.80;99.90;;;;;;5024836;28;20471;-51
2023/08/01 06:53:56;;;;;;;6.40;4.17;;;21.80;99.90;;;;;;5025424;28;20466;-55
2023/08/01 06:56:23;;;;;;;5.00;3.37;;;21.80;99.90;;;;;;5025480;28;20500;-52
2023/08/01 06:58:50;;;;;;;8.40;4.60;;;21.80;99.90;;;;;;5026574;28;20469;-49
2023/08/01 07:01:16;;;;;;;7.63;4.60;;;21.80;99.90;;;;;;5022078;28;20478;-53
2023/08/01 07:03:45;;;;;;;5.53;4.67;;;21.80;99.90;;;;;;5020901;28;20465;-52
2023/08/01 07:06:12;;;;;;;5.30;4.20;;;21.80;99.90;;;;;;5024595;28;20463;-52
2023/08/01 07:08:38;;;;;;;5.50;5.00;;;21.80;99.90;;;;;;5026684;28;20575;-50
2023/08/01 07:11:05;;;;;;;6.03;4.60;;;21.80;99.90;;;;;;5024960;28;20466;-54
2023/08/01 07:13:32;;;;;;;7.83;5.43;;;21.80;99.90;;;;;;5023770;28;20464;-52
2023/08/01 07:15:59;;;;;;;6.47;5.20;;;21.80;99.90;;;;;;5023225;28;20462;-50
2023/08/01 07:18:25;;;;;;;6.53;4.90;;;21.80;99.90;;;;;;5023335;28;20473;-52
2023/08/01 07:21:01;;;;;;;4.70;4.30;;;21.80;99.90;;;;;;5028908;28;20500;-51
2023/08/01 07:23:28;;;;;;;6.00;5.10;;;21.80;99.90;;;;;;5028908;28;20472;-51
2023/08/01 07:25:55;;;;;;;6.23;5.47;;;21.80;99.90;;;;;;5032901;28;21076;-51
2023/08/01 07:28:22;;;;;;;4.93;3.90;;;21.80;99.90;;;;;;5033497;28;20466;-54
2023/08/01 07:30:48;;;;;;;5.97;5.20;;;21.80;99.90;;;;;;5028106;28;21061;-50
2023/08/01 07:33:15;;;;;;;7.87;4.73;;;21.80;99.90;;;;;;5025332;28;20461;-50
2023/08/01 07:35:42;;;;;;;5.23;4.37;;;21.80;99.90;;;;;;5024866;28;20464;-50
2023/08/01 07:38:10;;;;;;;7.90;7.10;;;21.80;99.90;;;;;;5020819;28;20477;-52
2023/08/01 07:40:37;;;;;;;11.45;9.85;;;21.80;99.90;;;;;;5029164;28;20463;-49
2023/08/01 07:43:04;;;;;;;15.23;11.87;;;21.80;99.90;;;;;;5024721;28;20199;-50
2023/08/01 07:45:34;;;;;;;14.93;11.00;;;21.70;99.90;;;;;;5031043;28;20446;-50
2023/08/01 07:48:01;;;;;;;10.20;9.20;;;21.70;99.90;;;;;;5031094;28;20453;-52
2023/08/01 07:50:27;;;;;;;9.70;8.60;;;21.70;99.90;;;;;;5029293;28;20465;-53
2023/08/01 07:52:55;;;;;;;8.63;7.77;;;21.70;99.90;;;;;;5033852;28;20465;-53
2023/08/01 07:55:23;;;;;;;7.40;6.70;;;21.70;99.90;;;;;;5033030;28;20450;-52
2023/08/01 07:57:49;;;;;;;9.20;7.37;;;21.70;99.90;;;;;;5028262;28;20832;-54
2023/08/01 08:00:17;;;;;;;9.70;7.80;;;21.80;99.90;;;;;;5013236;28;20770;-52
2023/08/01 08:02:45;;;;;;;8.50;7.70;;;21.80;99.90;;;;;;5028857;28;21247;-51
2023/08/01 08:05:12;;;;;;;8.67;7.87;;;21.80;99.90;;;;;;5027696;28;20458;-52
2023/08/01 08:07:39;;;;;;;8.90;8.13;;;21.80;99.90;;;;;;5022797;28;20462;-50
2023/08/01 08:10:07;;;;;;;8.17;7.37;;;21.80;99.90;;;;;;5031497;28;21060;-54
2023/08/01 08:12:35;;;;;;;7.73;7.07;;;21.80;99.90;;;;;;5031271;28;20473;-51
2023/08/01 08:15:01;;;;;;;6.97;6.37;;;21.80;99.90;;;;;;5031283;28;20969;-51
2023/08/01 08:17:28;;;;;;;11.37;7.30;;;21.80;99.90;;;;;;5030846;28;20468;-56
2023/08/01 08:19:55;;;;;;;9.33;7.00;;;21.80;99.90;;;;;;5026413;28;21221;-49
2023/08/01 08:22:21;;;;;;;8.83;6.90;;;21.80;99.90;;;;;;5031013;28;21164;-51
2023/08/01 08:24:49;;;;;;;7.60;6.47;;;21.80;99.90;;;;;;5032709;28;20462;-53
2023/08/01 08:27:15;;;;;;;7.50;6.60;;;21.80;99.90;;;;;;5028336;28;20455;-51
2023/08/01 08:29:43;;;;;;;8.00;7.40;;;21.80;99.90;;;;;;5030359;28;20219;-50
2023/08/01 08:32:10;;;;;;;7.37;6.60;;;21.80;99.90;;;;;;5016867;28;20474;-50
2023/08/01 08:34:37;;;;;;;13.60;7.90;;;21.80;99.90;;;;;;5021635;28;20733;-51
2023/08/01 08:37:04;;;;;;;9.87;7.87;;;21.80;99.90;;;;;;5022008;28;20823;-54
2023/08/01 08:39:31;;;;;;;9.73;7.90;;;21.80;99.90;;;;;;5023908;28;20457;-53
2023/08/01 08:41:58;;;;;;;8.13;7.30;;;21.80;99.90;;;;;;5023642;28;20481;-51
2023/08/01 08:44:25;;;;;;;13.07;7.77;;;21.80;99.90;;;;;;5020970;28;20461;-50
2023/08/01 08:46:54;;;;;;;8.67;7.50;;;21.80;99.90;;;;;;5021648;28;20548;-51
2023/08/01 08:49:21;;;;;;;9.27;7.63;;;21.80;99.90;;;;;;5023295;28;20471;-52
2023/08/01 08:51:49;;;;;;;8.10;7.30;;;21.80;99.90;;;;;;5022873;28;21016;-50
2023/08/01 08:54:17;;;;;;;7.87;7.10;;;21.80;99.90;;;;;;5018690;28;20554;-50
2023/08/01 08:56:44;;;;;;;15.40;8.23;;;21.80;99.90;;;;;;5020375;28;20492;-52
2023/08/01 08:59:11;;;;;;;8.27;7.57;;;21.80;99.90;;;;;;5024006;28;20912;-50
2023/08/01 09:01:39;;;;;;;9.70;7.40;;;21.80;99.90;;;;;;5023478;28;20486;-50
2023/08/01 09:04:08;;;;;;;7.93;7.23;;;21.80;99.90;;;;;;5021323;28;21268;-51
2023/08/01 09:06:41;;;;;;;7.80;6.83;;;21.80;99.90;;;;;;5021887;28;20465;-52
2023/08/01 09:09:11;;;;;;;6.63;6.10;;;21.80;99.90;;;;;;5017849;28;20461;-51
2023/08/01 09:11:45;;;;;;;8.83;7.80;;;21.80;99.90;;;;;;5024569;28;20485;-55
2023/08/01 09:14:12;;;;;;;8.40;6.80;;;21.80;99.90;;;;;;5023041;28;20496;-55
2023/08/01 09:16:41;;;;;;;9.00;6.57;;;21.80;99.90;;;;;;5017607;28;20469;-50
2023/08/01 09:19:09;;;;;;;8.20;6.03;;;21.80;99.90;;;;;;5018146;28;20844;-60
2023/08/01 09:21:38;;;;;;;8.03;6.60;;;21.80;99.90;;;;;;5016184;28;20489;-60
2023/08/01 09:24:12;;;;;;;7.13;6.43;;;21.80;99.90;;;;;;5019097;28;20549;-58
2023/08/01 09:26:39;;;;;;;10.43;6.53;;;21.90;99.90;;;;;;5021250;28;20462;-62
2023/08/01 09:29:06;;;;;;;8.13;6.53;;;21.90;99.90;;;;;;5022359;28;20478;-62
2023/08/01 09:31:35;;;;;;;8.53;7.20;;;21.90;99.90;;;;;;5027474;28;20473;-61
2023/08/01 09:34:03;;;;;;;12.03;6.60;;;21.90;99.90;;;;;;5027187;28;20458;-59
2023/08/01 09:36:32;;;;;;;9.53;6.23;;;21.90;99.90;;;;;;5022644;28;20462;-64
2023/08/01 09:39:00;;;;;;;7.87;7.00;;;21.90;99.90;;;;;;5024318;28;20460;-59
2023/08/01 09:41:27;;;;;;;8.27;5.80;;;21.90;99.90;;;;;;5024966;28;20576;-56
2023/08/01 09:43:54;;;;;;;7.20;6.13;;;21.90;99.90;;;;;;5026863;28;20466;-55
2023/08/01 09:46:20;;;;;;;7.63;5.73;;;21.90;99.90;;;;;;5019329;28;20464;-65
2023/08/01 09:48:47;;;;;;;8.43;6.43;;;21.90;99.90;;;;;;5022292;28;20579;-59
2023/08/01 09:51:15;;;;;;;6.57;5.93;;;22.00;99.90;;;;;;5027009;28;20465;-53
2023/08/01 09:53:52;;;;;;;7.47;6.30;;;22.00;99.90;;;;;;5028686;28;20457;-55
2023/08/01 09:56:21;;;;;;;14.00;6.87;;;22.00;99.90;;;;;;5026370;28;20472;-57
2023/08/01 09:58:49;;;;;;;6.67;6.03;;;22.00;99.90;;;;;;5028926;28;20520;-55
2023/08/01 10:01:17;;;;;;;6.80;5.90;;;22.00;99.90;;;;;;5024337;28;20450;-51
2023/08/01 10:03:46;;;;;;;6.13;5.63;;;22.00;99.90;;;;;;5023720;28;20469;-53
2023/08/01 10:06:18;;;;;;;11.47;6.70;;;22.00;99.90;;;;;;5027963;28;20481;-57
2023/08/01 10:08:45;;;;;;;8.03;6.50;;;22.00;99.90;;;;;;5028083;28;20469;-53
2023/08/01 10:11:15;;;;;;;9.10;5.80;;;22.00;99.90;;;;;;5024767;28;20567;-58
2023/08/01 10:13:43;;;;;;;10.60;6.33;;;22.00;99.90;;;;;;5027204;28;20473;-54
2023/08/01 10:16:10;;;;;;;7.70;5.00;;;22.00;99.90;;;;;;5025353;28;20460;-60
2023/08/01 10:18:38;;;;;;;6.00;5.20;;;22.10;99.90;;;;;;5029904;28;20844;-57
2023/08/01 10:21:06;;;;;;;7.70;4.93;;;22.10;99.90;;;;;;5025186;28;21613;-54
2023/08/01 10:23:34;;;;;;;9.07;5.53;;;22.10;99.90;;;;;;5032792;28;20497;-62
2023/08/01 10:26:02;;;;;;;6.10;5.50;;;22.10;99.90;;;;;;5029843;28;20804;-65
2023/08/01 10:28:36;;;;;;;6.00;5.30;;;22.10;99.90;;;;;;5026119;28;21032;-59
2023/08/01 10:31:10;;;;;;;5.70;5.20;;;22.20;99.90;;;;;;5023943;28;20458;-57
2023/08/01 10:33:38;;;;;;;7.03;5.27;;;22.20;99.90;;;;;;5024498;28;20947;-55
2023/08/01 10:36:14;;;;;;;7.30;5.30;;;22.20;99.90;;;;;;5031542;28;20480;-55
2023/08/01 10:38:47;;;;;;;4.77;4.30;;;22.20;99.90;;;;;;5030341;28;20457;-65
2023/08/01 10:41:20;;;;;;;4.47;4.07;;;22.30;99.90;;;;;;5024578;28;20453;-62
2023/08/01 10:43:48;;;;;;;5.17;4.67;;;22.30;99.90;;;;;;5033126;28;20846;-59
2023/08/01 10:46:15;;;;;;;8.10;4.60;;;22.30;99.90;;;;;;5022871;28;20458;-55
2023/08/01 10:48:49;;;;;;;8.80;5.10;;;22.30;99.90;;;;;;5028449;28;20832;-50
2023/08/01 10:51:16;;;;;;;5.30;4.20;;;22.40;99.90;;;;;;5029443;28;20456;-52
2023/08/01 10:53:43;;;;;;;5.90;3.90;;;22.40;99.90;;;;;;5028624;28;20481;-54
2023/08/01 10:56:17;;;;;;;6.23;5.07;;;22.50;99.90;;;;;;5025191;28;20838;-54
2023/08/01 10:58:44;;;;;;;5.70;5.03;;;22.50;99.90;;;;;;5028409;28;20485;-54
2023/08/01 11:01:12;;;;;;;5.00;4.50;;;22.50;99.90;;;;;;5020918;28;20477;-53
2023/08/01 11:03:41;;;;;;;9.27;4.63;;;22.50;99.90;;;;;;5022807;28;21068;-52
2023/08/01 11:06:08;;;;;;;8.43;5.33;;;22.50;99.90;;;;;;5021689;28;20463;-56
2023/08/01 11:08:36;;;;;;;8.53;5.40;;;22.50;99.90;;;;;;5024641;28;20482;-52
2023/08/01 11:11:05;;;;;;;6.03;4.60;;;22.50;99.90;;;;;;5026044;28;20462;-54
2023/08/01 11:13:34;;;;;;;5.00;4.50;;;22.50;99.90;;;;;;5024714;28;20627;-51
2023/08/01 11:16:02;;;;;;;7.50;4.23;;;22.60;99.90;;;;;;5023437;28;20864;-52
2023/08/01 11:18:30;;;;;;;5.70;5.20;;;22.60;99.90;;;;;;5026595;28;20736;-52
2023/08/01 11:20:57;;;;;;;7.53;4.27;;;22.60;99.90;;;;;;5026618;28;21052;-55
2023/08/01 11:23:29;;;;;;;6.00;4.60;;;22.60;99.90;;;;;;5024900;28;20482;-54
